createdAt,value
2017-10-16T00:01:00.420Z,50.70
2017-10-16T00:03:27.936Z,43.63
2017-10-16T00:05:55.502Z,43.13
2017-10-16T00:08:23.015Z,43.13
2017-10-16T00:10:50.515Z,41.20
2017-10-16T00:13:19.115Z,42.67
2017-10-16T00:15:46.631Z,39.40
2017-10-16T00:18:14.131Z,37.93
2017-10-16T00:20:42.467Z,38.73
2017-10-16T00:23:10.075Z,47.03
2017-10-16T00:25:37.608Z,49.00
2017-10-16T00:28:05.432Z,52.67
2017-10-16T00:30:33.064Z,60.83
2017-10-16T00:33:00.595Z,51.97
2017-10-16T00:35:28.528Z,54.17
2017-10-16T00:37:56.092Z,59.93
2017-10-16T00:40:23.785Z,67.77
2017-10-16T00:42:51.871Z,72.27
2017-10-16T00:45:19.401Z,73.43
2017-10-16T00:47:47.112Z,79.33
2017-10-16T00:50:15.779Z,59.30
2017-10-16T00:52:44.075Z,60.93
2017-10-16T00:55:11.665Z,49.53
2017-10-16T00:57:39.612Z,41.40
2017-10-16T01:00:07.333Z,43.77
2017-10-16T01:02:35.243Z,48.60
2017-10-16T01:05:03.399Z,45.33
2017-10-16T01:07:31.816Z,40.17
2017-10-16T01:09:59.388Z,39.57
2017-10-16T01:12:26.993Z,38.40
2017-10-16T01:14:55.282Z,40.70
2017-10-16T01:17:22.794Z,40.77
2017-10-16T01:19:50.349Z,40.90
2017-10-16T01:22:18.576Z,39.47
2017-10-16T01:24:46.322Z,39.90
2017-10-16T01:27:14.375Z,37.30
2017-10-16T01:29:41.886Z,33.27
2017-10-16T01:32:09.435Z,32.80
2017-10-16T01:34:37.322Z,35.70
2017-10-16T01:37:04.890Z,30.77
2017-10-16T01:39:32.419Z,36.70
2017-10-16T01:41:59.954Z,32.37
2017-10-16T01:44:27.459Z,31.37
2017-10-16T01:46:54.968Z,34.00
2017-10-16T01:49:22.528Z,33.17
2017-10-16T01:51:49.856Z,36.40
2017-10-16T01:54:17.372Z,33.37
2017-10-16T01:56:44.939Z,31.53
2017-10-16T01:59:12.490Z,37.27
2017-10-16T02:01:40.429Z,38.97
2017-10-16T02:04:08.435Z,39.37
2017-10-16T02:06:36.497Z,39.03
2017-10-16T02:09:04.585Z,37.20
2017-10-16T02:11:32.579Z,38.03
2017-10-16T02:14:00.593Z,35.07
2017-10-16T02:16:28.483Z,35.63
2017-10-16T02:18:56.477Z,31.80
2017-10-16T02:21:24.483Z,32.33
2017-10-16T02:23:52.352Z,33.27
2017-10-16T02:26:20.581Z,30.17
2017-10-16T02:28:48.509Z,30.50
2017-10-16T02:31:16.346Z,31.57
2017-10-16T02:33:44.420Z,27.90
2017-10-16T02:36:12.146Z,32.17
2017-10-16T02:38:39.673Z,29.70
2017-10-16T02:41:08.336Z,29.10
2017-10-16T02:43:35.846Z,32.40
2017-10-16T02:46:03.398Z,33.60
2017-10-16T02:48:31.339Z,35.33
2017-10-16T02:50:58.856Z,35.27
2017-10-16T02:53:26.891Z,32.77
2017-10-16T02:55:55.654Z,37.30
2017-10-16T02:58:23.253Z,35.53
2017-10-16T03:00:51.278Z,35.07
2017-10-16T03:03:19.399Z,26.70
2017-10-16T03:05:46.919Z,35.90
2017-10-16T03:08:14.447Z,37.13
2017-10-16T03:10:42.008Z,34.77
2017-10-16T03:13:09.525Z,33.83
2017-10-16T03:15:37.032Z,35.10
2017-10-16T03:18:04.838Z,37.63
2017-10-16T03:20:32.347Z,38.00
2017-10-16T03:23:00.396Z,33.93
2017-10-16T03:25:27.975Z,32.27
2017-10-16T03:27:55.515Z,33.80
2017-10-16T03:30:23.022Z,29.37
2017-10-16T03:32:50.819Z,33.53
2017-10-16T03:35:18.335Z,33.37
2017-10-16T03:37:45.848Z,38.13
2017-10-16T03:40:13.405Z,38.83
2017-10-16T03:42:40.915Z,42.00
2017-10-16T03:45:08.453Z,38.87
2017-10-16T03:47:36.244Z,39.80
2017-10-16T03:50:03.761Z,41.00
2017-10-16T03:52:31.301Z,36.67
2017-10-16T03:54:58.887Z,39.17
2017-10-16T03:57:26.405Z,36.07
2017-10-16T03:59:53.682Z,34.77
2017-10-16T04:02:21.493Z,41.00
2017-10-16T04:04:49.006Z,39.27
2017-10-16T04:07:16.515Z,39.67
2017-10-16T04:09:44.416Z,41.17
2017-10-16T04:12:12.687Z,40.67
2017-10-16T04:14:40.959Z,37.17
2017-10-16T04:17:09.296Z,35.93
2017-10-16T04:19:36.808Z,37.63
2017-10-16T04:22:04.332Z,38.30
2017-10-16T04:24:32.365Z,39.63
2017-10-16T04:27:00.081Z,41.47
2017-10-16T04:29:27.613Z,39.10
2017-10-16T04:31:55.175Z,40.97
2017-10-16T04:34:22.679Z,48.20
2017-10-16T04:36:50.189Z,49.90
2017-10-16T04:39:18.104Z,50.37
2017-10-16T04:41:46.383Z,41.50
2017-10-16T04:44:14.668Z,45.37
2017-10-16T04:46:42.476Z,45.70
2017-10-16T04:49:09.997Z,47.17
2017-10-16T04:51:37.964Z,34.37
2017-10-16T04:54:05.549Z,45.93
2017-10-16T04:56:33.050Z,41.73
2017-10-16T04:59:00.554Z,49.90
2017-10-16T05:01:28.118Z,46.67
2017-10-16T05:03:55.660Z,39.90
2017-10-16T05:06:23.180Z,44.00
2017-10-16T05:08:50.755Z,40.20
2017-10-16T05:11:18.432Z,37.40
2017-10-16T05:13:46.168Z,33.00
2017-10-16T05:16:14.083Z,42.27
2017-10-16T05:18:42.335Z,38.67
2017-10-16T05:21:11.156Z,36.67
2017-10-16T05:23:38.667Z,38.40
2017-10-16T05:26:06.251Z,37.77
2017-10-16T05:28:34.620Z,34.03
2017-10-16T05:31:02.903Z,39.53
2017-10-16T05:33:31.230Z,45.07
2017-10-16T05:35:59.047Z,42.90
2017-10-16T05:38:26.556Z,42.00
2017-10-16T05:40:54.252Z,43.23
2017-10-16T05:43:22.276Z,44.63
2017-10-16T05:45:49.830Z,45.13
2017-10-16T05:48:17.348Z,48.17
2017-10-16T05:50:45.167Z,45.10
2017-10-16T05:53:12.679Z,49.53
2017-10-16T05:55:40.192Z,51.40
2017-10-16T05:58:08.227Z,51.50
2017-10-16T06:00:36.499Z,50.53
2017-10-16T06:03:04.780Z,48.00
2017-10-16T06:05:32.355Z,43.53
2017-10-16T06:07:59.887Z,48.77
2017-10-16T06:10:27.395Z,46.23
2017-10-16T06:12:55.762Z,47.73
2017-10-16T06:15:23.267Z,41.00
2017-10-16T06:17:50.779Z,45.83
2017-10-16T06:20:18.339Z,49.53
2017-10-16T06:22:45.856Z,52.80
2017-10-16T06:25:14.440Z,50.40
2017-10-16T06:27:42.263Z,57.73
2017-10-16T06:30:09.835Z,68.27
2017-10-16T06:32:37.423Z,78.33
2017-10-16T06:35:05.120Z,62.40
2017-10-16T06:37:32.627Z,49.53
2017-10-16T06:40:00.175Z,41.90
2017-10-16T06:42:27.844Z,35.37
2017-10-16T06:44:55.379Z,31.53
2017-10-16T06:47:22.887Z,27.57
2017-10-16T06:49:50.463Z,23.60
2017-10-16T06:52:18.023Z,17.97
2017-10-16T06:54:46.330Z,18.50
2017-10-16T06:57:13.887Z,18.17
2017-10-16T06:59:41.398Z,16.57
2017-10-16T07:02:08.908Z,16.60
2017-10-16T07:04:36.476Z,16.97
2017-10-16T07:07:04.008Z,17.27
2017-10-16T07:09:31.530Z,16.90
2017-10-16T07:11:59.124Z,16.13
2017-10-16T07:14:26.632Z,13.87
2017-10-16T07:16:54.140Z,16.67
2017-10-16T07:19:22.079Z,14.70
2017-10-16T07:21:49.638Z,14.87
2017-10-16T07:24:17.160Z,14.20
2017-10-16T07:26:45.003Z,13.40
2017-10-16T07:29:12.523Z,13.60
2017-10-16T07:31:40.176Z,13.30
2017-10-16T07:34:07.748Z,12.50
2017-10-16T07:36:35.265Z,14.50
2017-10-16T07:39:02.775Z,12.00
2017-10-16T07:41:30.335Z,13.30
2017-10-16T07:43:57.847Z,13.47
2017-10-16T07:46:25.371Z,12.87
2017-10-16T07:48:53.159Z,16.17
2017-10-16T07:51:20.663Z,13.97
2017-10-16T07:53:48.982Z,17.90
2017-10-16T07:56:16.539Z,13.60
2017-10-16T07:58:44.048Z,12.67
2017-10-16T08:01:11.552Z,14.20
2017-10-16T08:03:39.107Z,11.93
2017-10-16T08:06:06.694Z,11.97
2017-10-16T08:08:34.219Z,10.90
2017-10-16T08:11:01.980Z,12.90
2017-10-16T08:13:29.497Z,13.40
2017-10-16T08:15:57.003Z,11.13
2017-10-16T08:18:24.810Z,12.90
2017-10-16T08:20:52.324Z,12.50
2017-10-16T08:23:20.192Z,11.90
2017-10-16T08:25:47.776Z,11.87
2017-10-16T08:28:15.297Z,12.83
2017-10-16T08:30:42.816Z,12.43
2017-10-16T08:33:11.530Z,12.53
2017-10-16T08:35:39.028Z,13.43
2017-10-16T08:38:06.532Z,14.37
2017-10-16T08:40:34.108Z,13.60
2017-10-16T08:43:02.407Z,13.50
2017-10-16T08:45:29.911Z,13.33
2017-10-16T08:47:57.831Z,14.03
2017-10-16T08:50:25.336Z,15.00
2017-10-16T08:52:52.844Z,13.33
2017-10-16T08:55:21.172Z,13.83
2017-10-16T08:57:48.751Z,14.00
2017-10-16T09:00:17.340Z,14.40
2017-10-16T09:02:45.152Z,14.83
2017-10-16T09:05:12.658Z,14.10
2017-10-16T09:07:40.173Z,14.40
2017-10-16T09:10:08.131Z,14.50
2017-10-16T09:12:35.667Z,14.40
2017-10-16T09:15:03.212Z,14.87
2017-10-16T09:17:30.779Z,15.20
2017-10-16T09:19:58.290Z,14.10
2017-10-16T09:22:25.873Z,14.23
2017-10-16T09:24:53.463Z,13.50
2017-10-16T09:27:21.813Z,13.87
2017-10-16T09:29:49.343Z,12.63
2017-10-16T09:32:17.176Z,14.17
2017-10-16T09:34:44.690Z,13.97
2017-10-16T09:37:12.191Z,13.33
2017-10-16T09:39:40.770Z,14.50
2017-10-16T09:42:08.275Z,14.70
2017-10-16T09:44:35.824Z,14.70
2017-10-16T09:47:03.473Z,16.30
2017-10-16T09:49:30.987Z,14.50
2017-10-16T09:51:58.508Z,14.23
2017-10-16T09:54:26.308Z,15.03
2017-10-16T09:56:53.825Z,13.77
2017-10-16T09:59:21.904Z,15.57
2017-10-16T10:01:49.579Z,13.70
2017-10-16T10:04:17.131Z,15.00
2017-10-16T10:06:45.263Z,14.90
2017-10-16T10:09:13.030Z,14.43
2017-10-16T10:11:41.317Z,14.97
2017-10-16T10:14:09.371Z,14.10
2017-10-16T10:16:37.656Z,12.70
2017-10-16T10:19:06.606Z,12.60
2017-10-16T10:21:34.134Z,12.10
2017-10-16T10:24:01.666Z,13.27
2017-10-16T10:26:29.991Z,13.20
2017-10-16T10:28:57.520Z,12.50
2017-10-16T10:31:25.027Z,13.37
2017-10-16T10:33:52.570Z,12.83
2017-10-16T10:36:20.075Z,12.50
2017-10-16T10:38:47.611Z,11.67
2017-10-16T10:41:15.411Z,11.80
2017-10-16T10:43:42.920Z,12.97
2017-10-16T10:46:10.427Z,10.90
2017-10-16T10:48:38.751Z,12.20
2017-10-16T10:51:06.382Z,12.40
2017-10-16T10:53:33.927Z,12.13
2017-10-16T10:56:01.434Z,11.80
2017-10-16T10:58:28.991Z,11.23
2017-10-16T11:00:56.503Z,11.30
2017-10-16T11:03:24.026Z,12.03
2017-10-16T11:05:51.594Z,11.93
2017-10-16T11:08:19.104Z,12.07
2017-10-16T11:10:46.614Z,10.67
2017-10-16T11:13:15.689Z,11.70
2017-10-16T11:15:43.210Z,11.63
2017-10-16T11:18:10.767Z,9.40
2017-10-16T11:20:38.352Z,12.37
2017-10-16T11:23:05.869Z,11.73
2017-10-16T11:25:33.715Z,10.27
2017-10-16T11:28:01.329Z,11.10
2017-10-16T11:30:28.956Z,11.23
2017-10-16T11:32:57.290Z,10.87
2017-10-16T11:35:24.796Z,12.13
2017-10-16T11:37:52.301Z,11.17
2017-10-16T11:40:19.864Z,10.93
2017-10-16T11:42:47.380Z,9.70
2017-10-16T11:45:14.930Z,11.30
2017-10-16T11:47:43.692Z,12.10
2017-10-16T11:50:11.515Z,11.27
2017-10-16T11:52:39.654Z,10.87
2017-10-16T11:55:07.315Z,12.17
2017-10-16T11:57:34.863Z,10.63
2017-10-16T12:00:02.536Z,11.10
2017-10-16T12:02:30.812Z,10.67
2017-10-16T12:04:59.089Z,12.20
2017-10-16T12:07:27.745Z,10.67
2017-10-16T12:09:55.794Z,9.87
2017-10-16T12:12:23.384Z,9.70
2017-10-16T12:14:50.892Z,11.47
2017-10-16T12:17:18.427Z,11.37
2017-10-16T12:19:46.774Z,10.73
2017-10-16T12:22:14.293Z,10.03
2017-10-16T12:24:41.798Z,11.13
2017-10-16T12:27:09.371Z,10.10
2017-10-16T12:29:36.903Z,11.03
2017-10-16T12:32:04.444Z,10.10
2017-10-16T12:34:32.116Z,10.83
2017-10-16T12:36:59.618Z,10.57
2017-10-16T12:39:27.135Z,9.73
2017-10-16T12:41:54.923Z,10.30
2017-10-16T12:44:22.489Z,10.70
2017-10-16T12:46:49.997Z,9.20
2017-10-16T12:49:17.840Z,9.70
2017-10-16T12:51:45.356Z,10.43
2017-10-16T12:54:12.866Z,8.60
2017-10-16T12:56:40.452Z,9.00
2017-10-16T12:59:08.032Z,8.40
2017-10-16T13:01:35.575Z,8.70
2017-10-16T13:04:04.308Z,10.60
2017-10-16T13:06:31.829Z,9.20
2017-10-16T13:08:59.335Z,9.23
2017-10-16T13:11:27.719Z,10.00
2017-10-16T13:13:55.243Z,10.20
2017-10-16T13:16:22.792Z,10.03
2017-10-16T13:18:50.406Z,9.07
2017-10-16T13:21:17.951Z,8.83
2017-10-16T13:23:46.575Z,8.47
2017-10-16T13:26:15.135Z,8.13
2017-10-16T13:28:42.659Z,9.30
2017-10-16T13:31:10.208Z,9.67
2017-10-16T13:33:38.587Z,9.73
2017-10-16T13:36:06.100Z,10.00
2017-10-16T13:38:33.619Z,9.47
2017-10-16T13:41:01.500Z,8.07
2017-10-16T13:43:29.067Z,9.23
2017-10-16T13:45:57.393Z,10.57
2017-10-16T13:48:25.056Z,10.17
2017-10-16T13:50:52.572Z,9.10
2017-10-16T13:53:20.135Z,9.33
2017-10-16T13:55:47.889Z,8.53
2017-10-16T13:58:15.404Z,9.20
2017-10-16T14:00:42.916Z,9.67
2017-10-16T14:03:10.872Z,9.20
2017-10-16T14:05:38.443Z,8.83
2017-10-16T14:08:06.715Z,9.47
2017-10-16T14:10:35.069Z,9.33
2017-10-16T14:13:02.579Z,9.80
2017-10-16T14:15:30.113Z,9.13
2017-10-16T14:17:58.675Z,9.73
2017-10-16T14:20:26.232Z,9.67
2017-10-16T14:22:53.923Z,9.33
2017-10-16T14:25:22.271Z,9.20
2017-10-16T14:27:49.823Z,10.70
2017-10-16T14:30:17.368Z,9.70
2017-10-16T14:32:44.907Z,9.67
2017-10-16T14:35:12.416Z,10.87
2017-10-16T14:37:39.925Z,10.10
2017-10-16T14:40:08.294Z,10.13
2017-10-16T14:42:35.855Z,11.03
2017-10-16T14:45:03.502Z,9.70
2017-10-16T14:47:32.091Z,9.60
2017-10-16T14:49:59.637Z,9.50
2017-10-16T14:52:27.990Z,10.90
2017-10-16T14:54:56.619Z,9.63
2017-10-16T14:57:24.334Z,10.03
2017-10-16T14:59:51.848Z,9.57
2017-10-16T15:02:21.860Z,10.07
2017-10-16T15:04:51.596Z,11.13
2017-10-16T15:07:19.163Z,10.00
2017-10-16T15:09:46.740Z,11.03
2017-10-16T15:12:14.310Z,9.63
2017-10-16T15:14:42.022Z,10.20
2017-10-16T15:17:09.533Z,11.00
2017-10-16T15:19:37.705Z,10.47
2017-10-16T15:22:05.619Z,10.23
2017-10-16T15:24:33.954Z,9.80
2017-10-16T15:27:01.455Z,9.60
2017-10-16T15:29:29.495Z,10.20
2017-10-16T15:31:57.098Z,12.13
2017-10-16T15:34:24.604Z,9.80
2017-10-16T15:36:52.109Z,9.77
2017-10-16T15:39:19.687Z,11.00
2017-10-16T15:41:47.307Z,11.33
2017-10-16T15:44:16.375Z,10.23
2017-10-16T15:46:45.096Z,9.60
2017-10-16T15:49:12.759Z,10.70
2017-10-16T15:51:40.438Z,9.70
2017-10-16T15:54:09.172Z,11.17
2017-10-16T15:56:36.684Z,9.33
2017-10-16T15:59:04.191Z,8.50
2017-10-16T16:01:31.779Z,9.50
2017-10-16T16:03:59.336Z,9.20
2017-10-16T16:06:27.606Z,9.50
2017-10-16T16:08:55.947Z,10.20
2017-10-16T16:11:23.495Z,9.40
2017-10-16T16:13:51.003Z,10.80
2017-10-16T16:16:19.332Z,11.33
2017-10-16T16:18:46.852Z,11.60
2017-10-16T16:21:14.431Z,10.97
2017-10-16T16:23:42.227Z,10.93
2017-10-16T16:26:09.727Z,10.00
2017-10-16T16:28:37.996Z,11.17
2017-10-16T16:31:07.320Z,11.23
2017-10-16T16:33:34.831Z,11.17
2017-10-16T16:36:02.335Z,10.97
2017-10-16T16:38:30.694Z,10.47
2017-10-16T16:40:59.013Z,11.17
2017-10-16T16:43:26.527Z,12.73
2017-10-16T16:45:55.084Z,13.90
2017-10-16T16:48:22.596Z,13.23
2017-10-16T16:50:50.123Z,13.80
2017-10-16T16:53:17.944Z,15.33
2017-10-16T16:55:45.455Z,13.60
2017-10-16T16:58:12.973Z,14.13
2017-10-16T17:00:40.580Z,14.87
2017-10-16T17:03:08.297Z,13.30
2017-10-16T17:05:35.812Z,14.27
2017-10-16T17:08:03.324Z,13.70
2017-10-16T17:10:32.182Z,17.07
2017-10-16T17:12:59.704Z,16.10
2017-10-16T17:15:27.213Z,16.57
2017-10-16T17:17:54.797Z,13.63
2017-10-16T17:20:22.296Z,14.00
2017-10-16T17:22:49.962Z,15.50
2017-10-16T17:25:18.576Z,17.23
2017-10-16T17:27:46.087Z,16.30
2017-10-16T17:30:13.591Z,20.63
2017-10-16T17:32:41.176Z,16.23
2017-10-16T17:35:08.678Z,16.17
2017-10-16T17:37:36.313Z,15.77
2017-10-16T17:40:03.870Z,14.20
2017-10-16T17:42:31.383Z,14.07
2017-10-16T17:44:59.013Z,14.97
2017-10-16T17:47:27.380Z,15.17
2017-10-16T17:49:54.892Z,15.40
2017-10-16T17:52:22.411Z,14.30
2017-10-16T17:54:50.741Z,14.80
2017-10-16T17:57:18.249Z,19.90
2017-10-16T17:59:45.828Z,18.57
2017-10-16T18:02:13.386Z,15.07
2017-10-16T18:04:40.890Z,16.90
2017-10-16T18:07:08.510Z,19.10
2017-10-16T18:09:36.067Z,18.20
2017-10-16T18:12:03.574Z,18.37
2017-10-16T18:14:31.297Z,15.60
2017-10-16T18:16:59.079Z,16.10
2017-10-16T18:19:26.705Z,16.90
2017-10-16T18:21:54.200Z,15.33
2017-10-16T18:24:21.771Z,16.43
2017-10-16T18:26:49.302Z,15.30
2017-10-16T18:29:16.808Z,14.63
2017-10-16T18:31:44.480Z,14.37
2017-10-16T18:34:11.999Z,14.73
2017-10-16T18:36:39.519Z,17.43
2017-10-16T18:39:07.082Z,16.60
2017-10-16T18:41:34.655Z,15.80
2017-10-16T18:44:02.177Z,15.70
2017-10-16T18:46:29.743Z,16.50
2017-10-16T18:48:58.018Z,16.00
2017-10-16T18:51:26.320Z,16.10
2017-10-16T18:53:54.684Z,16.20
2017-10-16T18:56:22.239Z,17.77
2017-10-16T18:58:50.599Z,15.73
2017-10-16T19:01:18.167Z,16.53
2017-10-16T19:03:45.683Z,16.47
2017-10-16T19:06:13.203Z,17.43
2017-10-16T19:08:41.840Z,17.00
2017-10-16T19:11:09.349Z,18.33
2017-10-16T19:13:36.871Z,15.87
2017-10-16T19:16:04.479Z,18.40
2017-10-16T19:18:32.009Z,16.60
2017-10-16T19:20:59.696Z,20.07
2017-10-16T19:23:27.646Z,18.23
2017-10-16T19:25:55.200Z,18.53
2017-10-16T19:28:23.275Z,18.13
2017-10-16T19:30:50.851Z,18.07
2017-10-16T19:33:18.431Z,19.47
2017-10-16T19:35:45.954Z,18.57
2017-10-16T19:38:14.820Z,19.70
2017-10-16T19:40:42.339Z,19.10
2017-10-16T19:43:10.180Z,20.23
2017-10-16T19:45:37.756Z,21.13
2017-10-16T19:48:05.275Z,17.63
2017-10-16T19:50:32.867Z,18.47
2017-10-16T19:53:01.361Z,19.30
2017-10-16T19:55:28.899Z,19.13
2017-10-16T19:57:56.730Z,18.53
2017-10-16T20:00:24.236Z,17.80
2017-10-16T20:02:51.747Z,19.07
2017-10-16T20:05:19.320Z,16.73
2017-10-16T20:07:46.872Z,18.90
2017-10-16T20:10:14.383Z,18.20
2017-10-16T20:12:42.040Z,19.00
2017-10-16T20:15:09.769Z,16.90
2017-10-16T20:17:37.307Z,18.70
2017-10-16T20:20:05.349Z,17.57
2017-10-16T20:22:32.865Z,19.40
2017-10-16T20:25:00.379Z,20.20
2017-10-16T20:27:28.409Z,20.57
2017-10-16T20:29:56.725Z,20.70
2017-10-16T20:32:24.352Z,20.40
2017-10-16T20:34:52.636Z,19.17
2017-10-16T20:37:20.195Z,19.83
2017-10-16T20:39:47.804Z,19.30
2017-10-16T20:42:15.892Z,20.73
2017-10-16T20:44:43.408Z,20.60
2017-10-16T20:47:10.994Z,21.43
2017-10-16T20:49:38.546Z,19.77
2017-10-16T20:52:06.083Z,20.67
2017-10-16T20:54:33.879Z,19.90
2017-10-16T20:57:01.382Z,22.03
2017-10-16T20:59:28.910Z,21.43
2017-10-16T21:01:56.515Z,22.70
2017-10-16T21:04:24.026Z,19.80
2017-10-16T21:06:51.545Z,19.40
2017-10-16T21:09:20.070Z,21.80
2017-10-16T21:11:47.809Z,19.97
2017-10-16T21:14:15.450Z,18.63
2017-10-16T21:16:43.780Z,18.07
2017-10-16T21:19:11.684Z,18.70
2017-10-16T21:21:39.885Z,18.40
2017-10-16T21:24:07.496Z,20.73
2017-10-16T21:26:36.714Z,20.33
2017-10-16T21:29:04.364Z,19.73
2017-10-16T21:31:31.959Z,20.53
2017-10-16T21:33:59.658Z,18.67
2017-10-16T21:36:28.223Z,21.10
2017-10-16T21:38:55.792Z,22.20
2017-10-16T21:41:23.572Z,21.63
2017-10-16T21:43:51.119Z,21.20
2017-10-16T21:46:18.632Z,20.93
2017-10-16T21:48:46.443Z,19.63
2017-10-16T21:51:13.959Z,20.60
2017-10-16T21:53:41.475Z,17.67
2017-10-16T21:56:09.891Z,20.47
2017-10-16T21:58:37.408Z,22.77
2017-10-16T22:01:04.948Z,20.07
2017-10-16T22:03:32.631Z,20.53
2017-10-16T22:06:00.207Z,19.33
2017-10-16T22:08:27.724Z,23.10
2017-10-16T22:10:55.283Z,22.17
2017-10-16T22:13:22.792Z,22.97
2017-10-16T22:15:51.064Z,22.67
2017-10-16T22:18:19.743Z,23.27
2017-10-16T22:20:47.251Z,27.23
2017-10-16T22:23:14.882Z,25.83
2017-10-16T22:25:43.215Z,23.27
2017-10-16T22:28:10.737Z,22.83
2017-10-16T22:30:38.346Z,24.00
2017-10-16T22:33:06.135Z,24.70
2017-10-16T22:35:34.406Z,22.63
2017-10-16T22:38:02.703Z,23.27
2017-10-16T22:40:31.451Z,23.13
2017-10-16T22:42:58.969Z,21.70
2017-10-16T22:45:26.532Z,22.67
2017-10-16T22:47:54.864Z,25.07
2017-10-16T22:50:22.372Z,28.13
2017-10-16T22:52:59.684Z,24.80
2017-10-16T22:55:27.690Z,23.50
2017-10-16T22:57:55.251Z,24.00
2017-10-16T23:00:23.606Z,28.60
2017-10-16T23:02:51.116Z,28.37
2017-10-16T23:05:18.624Z,24.23
2017-10-16T23:07:46.167Z,25.07
2017-10-16T23:10:13.688Z,22.23
2017-10-16T23:12:41.206Z,26.67
2017-10-16T23:15:09.067Z,26.63
2017-10-16T23:17:36.578Z,25.40
2017-10-16T23:20:04.724Z,27.57
2017-10-16T23:22:32.667Z,31.90
2017-10-16T23:25:00.328Z,27.63
2017-10-16T23:27:27.831Z,31.37
2017-10-16T23:29:55.412Z,32.80
2017-10-16T23:32:22.932Z,35.83
2017-10-16T23:34:51.259Z,30.90
2017-10-16T23:37:18.847Z,26.73
2017-10-16T23:39:47.160Z,27.97
2017-10-16T23:42:15.446Z,28.17
2017-10-16T23:44:43.576Z,30.80
2017-10-16T23:47:11.132Z,31.77
2017-10-16T23:49:39.108Z,29.50
2017-10-16T23:52:07.015Z,31.97
2017-10-16T23:54:34.527Z,29.47
2017-10-16T23:57:02.036Z,34.17
2017-10-16T23:59:29.927Z,40.17
